sensor_id;sensor_type;location;lat;lon;timestamp;pressure;altitude;pressure_sealevel;temperature;humidity
74427;BME280;62859;53.906;27.430;2023-06-14T00:02:24;1011;;;20;32.4
74427;BME280;62859;53.906;27.430;2023-06-14T00:06:50;1011;;;19.9;32.6
74427;BME280;62859;53.906;27.430;2023-06-14T00:12:02;1011;;;19.9;32.6
74427;BME280;62859;53.906;27.430;2023-06-14T00:17:26;1011;;;19.8;32.8
74427;BME280;62859;53.906;27.430;2023-06-14T00:21:56;1011;;;19.8;32.7
74427;BME280;62859;53.906;27.430;2023-06-14T00:26:58;1010.9;;;19.8;32.9
74427;BME280;62859;53.906;27.430;2023-06-14T00:32:00;1010.9;;;19.8;32.9
74427;BME280;62859;53.906;27.430;2023-06-14T00:37:18;1010.9;;;19.8;33
74427;BME280;62859;53.906;27.430;2023-06-14T00:42:24;1010.8;;;19.8;33.1
74427;BME280;62859;53.906;27.430;2023-06-14T00:46:42;1010.8;;;19.8;33.2
74427;BME280;62859;53.906;27.430;2023-06-14T00:51:58;1010.7;;;19.7;33.2
74427;BME280;62859;53.906;27.430;2023-06-14T00:57:18;1010.7;;;19.7;33.4
74427;BME280;62859;53.906;27.430;2023-06-14T01:02:22;1010.7;;;19.7;33.5
74427;BME280;62859;53.906;27.430;2023-06-14T01:07:02;1010.6;;;19.6;33.6
74427;BME280;62859;53.906;27.430;2023-06-14T01:11:54;1010.7;;;19.6;33.7
74427;BME280;62859;53.906;27.430;2023-06-14T01:17:22;1010.7;;;19.6;33.7
74427;BME280;62859;53.906;27.430;2023-06-14T01:22:25;1010.7;;;19.6;33.8
74427;BME280;62859;53.906;27.430;2023-06-14T01:27:00;1010.7;;;19.6;33.9
74427;BME280;62859;53.906;27.430;2023-06-14T01:31:50;1010.7;;;19.5;34
74427;BME280;62859;53.906;27.430;2023-06-14T01:36:44;1010.7;;;19.5;34.1
74427;BME280;62859;53.906;27.430;2023-06-14T01:42:22;1010.8;;;19.5;34.2
74427;BME280;62859;53.906;27.430;2023-06-14T01:46:42;1010.8;;;19.5;34.1
74427;BME280;62859;53.906;27.430;2023-06-14T01:51:58;1010.7;;;19.4;34.2
74427;BME280;62859;53.906;27.430;2023-06-14T01:56:44;1010.8;;;19.5;34.2
74427;BME280;62859;53.906;27.430;2023-06-14T02:01:58;1010.8;;;19.4;34.3
74427;BME280;62859;53.906;27.430;2023-06-14T02:06:42;1010.9;;;19.4;34.4
74427;BME280;62859;53.906;27.430;2023-06-14T02:11:42;1010.9;;;19.3;34.5
74427;BME280;62859;53.906;27.430;2023-06-14T02:17:18;1010.9;;;19.3;34.6
74427;BME280;62859;53.906;27.430;2023-06-14T02:22:24;1010.9;;;19.3;34.7
74427;BME280;62859;53.906;27.430;2023-06-14T02:27:02;1010.9;;;19.3;34.7
74427;BME280;62859;53.906;27.430;2023-06-14T02:32:00;1010.9;;;19.3;34.7
74427;BME280;62859;53.906;27.430;2023-06-14T02:37:18;1010.9;;;19.3;34.7
74427;BME280;62859;53.906;27.430;2023-06-14T02:42:24;1010.9;;;19.3;34.7
74427;BME280;62859;53.906;27.430;2023-06-14T02:46:42;1010.9;;;19.3;34.8
74427;BME280;62859;53.906;27.430;2023-06-14T02:51:50;1010.9;;;19.2;34.9
74427;BME280;62859;53.906;27.430;2023-06-14T02:56:52;1010.9;;;19.2;35
74427;BME280;62859;53.906;27.430;2023-06-14T03:02:26;1011;;;19.1;35.1
74427;BME280;62859;53.906;27.430;2023-06-14T03:07:18;1011;;;19.2;35.1
74427;BME280;62859;53.906;27.430;2023-06-14T03:12:00;1011;;;19.1;35.2
74427;BME280;62859;53.906;27.430;2023-06-14T03:17:16;1010.9;;;19.1;35.3
74427;BME280;62859;53.906;27.430;2023-06-14T03:22:26;1010.9;;;19.1;35.4
74427;BME280;62859;53.906;27.430;2023-06-14T03:27:00;1010.9;;;19.1;35.5
74427;BME280;62859;53.906;27.430;2023-06-14T03:31:56;1011;;;19.1;35.6
74427;BME280;62859;53.906;27.430;2023-06-14T03:37:06;1011;;;19.1;35.8
74427;BME280;62859;53.906;27.430;2023-06-14T03:42:24;1011;;;19.2;35.7
74427;BME280;62859;53.906;27.430;2023-06-14T03:47:02;1011;;;19.2;35.8
74427;BME280;62859;53.906;27.430;2023-06-14T03:52:00;1011;;;19.2;35.9
74427;BME280;62859;53.906;27.430;2023-06-14T03:57:18;1011;;;19.2;36
74427;BME280;62859;53.906;27.430;2023-06-14T04:02:24;1011;;;19.1;36.1
74427;BME280;62859;53.906;27.430;2023-06-14T04:06:42;1011.1;;;19.1;36.2
74427;BME280;62859;53.906;27.430;2023-06-14T04:11:42;1011;;;19.1;36.2
74427;BME280;62859;53.906;27.430;2023-06-14T04:17:18;1011;;;19.2;36.2
74427;BME280;62859;53.906;27.430;2023-06-14T04:22:26;1011;;;19.2;36.2
74427;BME280;62859;53.906;27.430;2023-06-14T04:27:00;1011;;;19.2;36.1
74427;BME280;62859;53.906;27.430;2023-06-14T04:31:53;1011;;;19.3;36
74427;BME280;62859;53.906;27.430;2023-06-14T04:37:16;1011;;;19.3;36.2
74427;BME280;62859;53.906;27.430;2023-06-14T04:42:24;1011;;;19.4;36.1
74427;BME280;62859;53.906;27.430;2023-06-14T04:47:02;1011;;;19.5;35.9
74427;BME280;62859;53.906;27.430;2023-06-14T04:51:43;1011;;;19.5;35.7
74427;BME280;62859;53.906;27.430;2023-06-14T04:57:18;1011;;;19.6;35.6
74427;BME280;62859;53.906;27.430;2023-06-14T05:02:24;1011;;;19.6;35.5
74427;BME280;62859;53.906;27.430;2023-06-14T05:06:52;1011;;;19.6;35.5
74427;BME280;62859;53.906;27.430;2023-06-14T05:11:52;1011;;;19.6;35.6
74427;BME280;62859;53.906;27.430;2023-06-14T05:17:18;1011;;;19.6;35.5
74427;BME280;62859;53.906;27.430;2023-06-14T05:22:26;1010.9;;;19.7;35.5
74427;BME280;62859;53.906;27.430;2023-06-14T05:26:42;1010.9;;;19.7;35.4
74427;BME280;62859;53.906;27.430;2023-06-14T05:31:42;1010.9;;;19.7;35.4
74427;BME280;62859;53.906;27.430;2023-06-14T05:37:18;1010.9;;;19.8;35.2
74427;BME280;62859;53.906;27.430;2023-06-14T05:42:24;1010.9;;;19.8;35.7
74427;BME280;62859;53.906;27.430;2023-06-14T05:46:43;1010.9;;;20.2;35.5
74427;BME280;62859;53.906;27.430;2023-06-14T05:51:50;1010.9;;;20.5;35.2
74427;BME280;62859;53.906;27.430;2023-06-14T05:57:20;1010.9;;;20.7;34.6
74427;BME280;62859;53.906;27.430;2023-06-14T06:02:26;1010.9;;;20.9;34.2
74427;BME280;62859;53.906;27.430;2023-06-14T06:06:48;1010.9;;;21;33.8
74427;BME280;62859;53.906;27.430;2023-06-14T06:11:50;1010.9;;;21;33.9
74427;BME280;62859;53.906;27.430;2023-06-14T06:17:18;1010.9;;;21.1;34.1
74427;BME280;62859;53.906;27.430;2023-06-14T06:22:26;1010.9;;;21.1;33.5
74427;BME280;62859;53.906;27.430;2023-06-14T06:27:12;1011;;;21.1;33.7
74427;BME280;62859;53.906;27.430;2023-06-14T06:31:42;1011;;;21.1;33.8
74427;BME280;62859;53.906;27.430;2023-06-14T06:37:20;1011;;;21.2;33.8
74427;BME280;62859;53.906;27.430;2023-06-14T06:42:26;1011;;;21.2;33.7
74427;BME280;62859;53.906;27.430;2023-06-14T06:47:02;1011;;;21.3;33.6
74427;BME280;62859;53.906;27.430;2023-06-14T06:52:06;1011;;;21.2;33.7
74427;BME280;62859;53.906;27.430;2023-06-14T06:57:20;1011;;;21.1;33.7
74427;BME280;62859;53.906;27.430;2023-06-14T07:02:26;1011;;;21.1;33.8
74427;BME280;62859;53.906;27.430;2023-06-14T07:07:02;1011;;;21.1;33.9
74427;BME280;62859;53.906;27.430;2023-06-14T07:11:52;1011;;;21.2;33.8
74427;BME280;62859;53.906;27.430;2023-06-14T07:17:20;1011;;;21.2;33.6
74427;BME280;62859;53.906;27.430;2023-06-14T07:22:26;1011;;;21.3;33.6
74427;BME280;62859;53.906;27.430;2023-06-14T07:26:54;1011;;;21.5;33.4
74427;BME280;62859;53.906;27.430;2023-06-14T07:32:08;1011;;;21.5;33.5
74427;BME280;62859;53.906;27.430;2023-06-14T07:36:42;1011;;;21.6;33.4
74427;BME280;62859;53.906;27.430;2023-06-14T07:42:20;1010.9;;;21.7;33.3
74427;BME280;62859;53.906;27.430;2023-06-14T07:46:54;1010.9;;;21.7;33
74427;BME280;62859;53.906;27.430;2023-06-14T07:51:54;1010.9;;;21.7;33.2
74427;BME280;62859;53.906;27.430;2023-06-14T07:56:58;1010.9;;;21.8;33
74427;BME280;62859;53.906;27.430;2023-06-14T08:02:18;1010.9;;;22;33
74427;BME280;62859;53.906;27.430;2023-06-14T08:06:42;1011;;;22.1;32.7
74427;BME280;62859;53.906;27.430;2023-06-14T08:11:54;1011;;;22.3;32.6
74427;BME280;62859;53.906;27.430;2023-06-14T08:16:46;1010.9;;;22.4;32.3
74427;BME280;62859;53.906;27.430;2023-06-14T08:21:44;1010.9;;;22.6;32.2
74427;BME280;62859;53.906;27.430;2023-06-14T08:26:42;1010.9;;;22.7;31.9
74427;BME280;62859;53.906;27.430;2023-06-14T08:31:54;1010.9;;;22.8;32
74427;BME280;62859;53.906;27.430;2023-06-14T08:37:14;1010.9;;;23;31.8
74427;BME280;62859;53.906;27.430;2023-06-14T08:42:18;1010.9;;;23.1;31.8
74427;BME280;62859;53.906;27.430;2023-06-14T08:46:42;1010.9;;;23.3;31.7
74427;BME280;62859;53.906;27.430;2023-06-14T08:51:57;1010.8;;;23.4;31.4
74427;BME280;62859;53.906;27.430;2023-06-14T08:56:58;1010.7;;;23.6;31.1
74427;BME280;62859;53.906;27.430;2023-06-14T09:02:20;1010.7;;;23.8;31.2
74427;BME280;62859;53.906;27.430;2023-06-14T09:07:00;1010.7;;;24.2;31
74427;BME280;62859;53.906;27.430;2023-06-14T09:11:42;1010.7;;;24.5;30.9
74427;BME280;62859;53.906;27.430;2023-06-14T09:16:58;1010.7;;;24.9;30.9
74427;BME280;62859;53.906;27.430;2023-06-14T09:22:08;1010.8;;;25;31.2
74427;BME280;62859;53.906;27.430;2023-06-14T09:26:56;1010.7;;;25;31.7
74427;BME280;62859;53.906;27.430;2023-06-14T09:32:08;1010.7;;;25.1;31.7
74427;BME280;62859;53.906;27.430;2023-06-14T09:36:58;1010.7;;;25.3;31.7
74427;BME280;62859;53.906;27.430;2023-06-14T09:42:22;1010.8;;;25.6;31.5
74427;BME280;62859;53.906;27.430;2023-06-14T09:46:55;1010.8;;;25.8;31.2
74427;BME280;62859;53.906;27.430;2023-06-14T09:51:54;1010.7;;;26.1;31
74427;BME280;62859;53.906;27.430;2023-06-14T09:56:44;1010.7;;;26.3;30.6
74427;BME280;62859;53.906;27.430;2023-06-14T10:02:21;1010.7;;;26.5;30.5
74427;BME280;62859;53.906;27.430;2023-06-14T10:06:54;1010.6;;;26.9;30
74427;BME280;62859;53.906;27.430;2023-06-14T10:12:08;1010.6;;;27.2;29.5
74427;BME280;62859;53.906;27.430;2023-06-14T10:17:00;1010.6;;;27.3;29.5
74427;BME280;62859;53.906;27.430;2023-06-14T10:22:21;1010.6;;;27.3;29.7
74427;BME280;62859;53.906;27.430;2023-06-14T10:26:50;1010.5;;;27.3;29.9
74427;BME280;62859;53.906;27.430;2023-06-14T10:31:43;1010.5;;;27.4;29.6
74427;BME280;62859;53.906;27.430;2023-06-14T10:36:59;1010.5;;;27.4;29.7
74427;BME280;62859;53.906;27.430;2023-06-14T10:42:20;1010.4;;;28.1;29.1
74427;BME280;62859;53.906;27.430;2023-06-14T10:47:09;1010.5;;;28.5;27.9
74427;BME280;62859;53.906;27.430;2023-06-14T10:51:42;1010.4;;;28;28.2
74427;BME280;62859;53.906;27.430;2023-06-14T10:56:47;1010.4;;;27.7;28.7
74427;BME280;62859;53.906;27.430;2023-06-14T11:02:27;1010.4;;;27.4;29.2
74427;BME280;62859;53.906;27.430;2023-06-14T11:06:45;1010.3;;;27.1;29.7
74427;BME280;62859;53.906;27.430;2023-06-14T11:12:07;1010.4;;;27;30
74427;BME280;62859;53.906;27.430;2023-06-14T11:17:03;1010.5;;;26.8;30.1
74427;BME280;62859;53.906;27.430;2023-06-14T11:22:20;1010.4;;;26.7;30.3
74427;BME280;62859;53.906;27.430;2023-06-14T11:26:42;1010.4;;;26.6;30.5
74427;BME280;62859;53.906;27.430;2023-06-14T11:31:43;1010.4;;;26.8;30.7
74427;BME280;62859;53.906;27.430;2023-06-14T11:36:42;1010.3;;;27;30.2
74427;BME280;62859;53.906;27.430;2023-06-14T11:42:22;1010.3;;;26.8;30.6
74427;BME280;62859;53.906;27.430;2023-06-14T11:46:42;1010.3;;;26.5;31.2
74427;BME280;62859;53.906;27.430;2023-06-14T11:51:56;1010.3;;;26.3;31.9
74427;BME280;62859;53.906;27.430;2023-06-14T11:57:00;1010.3;;;26.1;32.5
74427;BME280;62859;53.906;27.430;2023-06-14T12:01:58;1010.3;;;26;32.8
74427;BME280;62859;53.906;27.430;2023-06-14T12:06:54;1010.3;;;25.9;32.7
74427;BME280;62859;53.906;27.430;2023-06-14T12:11:59;1010.3;;;26.5;31.7
74427;BME280;62859;53.906;27.430;2023-06-14T12:17:04;1010.3;;;27.4;30.3
74427;BME280;62859;53.906;27.430;2023-06-14T12:22:30;1010.3;;;27.8;29.4
74427;BME280;62859;53.906;27.430;2023-06-14T12:26:42;1010.2;;;27.9;29
74427;BME280;62859;53.906;27.430;2023-06-14T12:31:54;1010.2;;;28.3;28.4
74427;BME280;62859;53.906;27.430;2023-06-14T12:37:28;1010.2;;;28.1;28.5
74427;BME280;62859;53.906;27.430;2023-06-14T12:42:08;1010.1;;;27.6;28.9
74427;BME280;62859;53.906;27.430;2023-06-14T12:46:54;1010.1;;;27.1;29.7
74427;BME280;62859;53.906;27.430;2023-06-14T12:52:08;1010.1;;;27;29.9
74427;BME280;62859;53.906;27.430;2023-06-14T12:57:14;1010.1;;;26.8;30.1
74427;BME280;62859;53.906;27.430;2023-06-14T13:02:20;1010.1;;;26.7;30.3
74427;BME280;62859;53.906;27.430;2023-06-14T13:07:10;1010;;;27.1;30
74427;BME280;62859;53.906;27.430;2023-06-14T13:11:54;1009.9;;;27.6;29
74427;BME280;62859;53.906;27.430;2023-06-14T13:17:30;1009.9;;;27.5;29.2
74427;BME280;62859;53.906;27.430;2023-06-14T13:22:10;1009.9;;;27.5;29.1
74427;BME280;62859;53.906;27.430;2023-06-14T13:26:42;1009.9;;;27.6;29
74427;BME280;62859;53.906;27.430;2023-06-14T13:32:07;1009.8;;;28;28.6
74427;BME280;62859;53.906;27.430;2023-06-14T13:37:28;1009.7;;;28.5;27.9
74427;BME280;62859;53.906;27.430;2023-06-14T13:41:52;1009.8;;;28.3;28.3
74427;BME280;62859;53.906;27.430;2023-06-14T13:46:42;1009.8;;;27.9;28.5
74427;BME280;62859;53.906;27.430;2023-06-14T13:52:23;1009.8;;;27.7;28.6
74427;BME280;62859;53.906;27.430;2023-06-14T13:57:30;1009.8;;;27.7;28.7
74427;BME280;62859;53.906;27.430;2023-06-14T14:02:22;1009.8;;;27.4;28.8
74427;BME280;62859;53.906;27.430;2023-06-14T14:07:08;1009.9;;;27.3;29.1
74427;BME280;62859;53.906;27.430;2023-06-14T14:12:08;1009.8;;;27.1;29.5
74427;BME280;62859;53.906;27.430;2023-06-14T14:17:28;1009.8;;;26.9;30.1
74427;BME280;62859;53.906;27.430;2023-06-14T14:22:22;1009.9;;;26.6;30.6
74427;BME280;62859;53.906;27.430;2023-06-14T14:26:42;1009.8;;;26.4;31
74427;BME280;62859;53.906;27.430;2023-06-14T14:32:08;1009.9;;;26.2;31.5
74427;BME280;62859;53.906;27.430;2023-06-14T14:37:28;1009.9;;;26.1;31.9
74427;BME280;62859;53.906;27.430;2023-06-14T14:42:22;1009.9;;;25.9;32.3
74427;BME280;62859;53.906;27.430;2023-06-14T14:47:08;1010;;;25.8;32.8
74427;BME280;62859;53.906;27.430;2023-06-14T14:52:08;1010;;;25.9;32.9
74427;BME280;62859;53.906;27.430;2023-06-14T14:57:28;1010;;;26.2;32.4
74427;BME280;62859;53.906;27.430;2023-06-14T15:02:20;1010;;;26.3;32.3
74427;BME280;62859;53.906;27.430;2023-06-14T15:06:48;1010;;;26.3;32.4
74427;BME280;62859;53.906;27.430;2023-06-14T15:12:23;1010;;;26.5;32.3
74427;BME280;62859;53.906;27.430;2023-06-14T15:17:26;1010;;;26.4;32.6
74427;BME280;62859;53.906;27.430;2023-06-14T15:22:22;1010;;;26.2;33.3
74427;BME280;62859;53.906;27.430;2023-06-14T15:26:42;1010;;;26.1;33.5
74427;BME280;62859;53.906;27.430;2023-06-14T15:31:42;1010;;;25.9;33.9
74427;BME280;62859;53.906;27.430;2023-06-14T15:37:30;1009.9;;;25.8;34.2
74427;BME280;62859;53.906;27.430;2023-06-14T15:42:22;1009.9;;;25.7;34.4
74427;BME280;62859;53.906;27.430;2023-06-14T15:47:16;1009.9;;;25.7;34.6
74427;BME280;62859;53.906;27.430;2023-06-14T15:52:08;1009.8;;;25.7;34.6
74427;BME280;62859;53.906;27.430;2023-06-14T15:57:30;1009.8;;;25.7;34.7
74427;BME280;62859;53.906;27.430;2023-06-14T16:02:20;1009.8;;;25.5;34.9
74427;BME280;62859;53.906;27.430;2023-06-14T16:06:54;1009.9;;;25.4;35.2
74427;BME280;62859;53.906;27.430;2023-06-14T16:11:56;1009.9;;;25.2;35.4
74427;BME280;62859;53.906;27.430;2023-06-14T16:17:27;1009.9;;;25.1;35.8
74427;BME280;62859;53.906;27.430;2023-06-14T16:22:23;1009.9;;;25;36.1
74427;BME280;62859;53.906;27.430;2023-06-14T16:26:55;1009.9;;;24.9;36.2
74427;BME280;62859;53.906;27.430;2023-06-14T16:31:54;1009.9;;;24.9;36.2
74427;BME280;62859;53.906;27.430;2023-06-14T16:37:26;1009.9;;;24.8;36.3
74427;BME280;62859;53.906;27.430;2023-06-14T16:41:55;1010;;;24.8;36.4
74427;BME280;62859;53.906;27.430;2023-06-14T16:46:56;1010;;;24.9;36.1
74427;BME280;62859;53.906;27.430;2023-06-14T16:51:43;1010;;;25;36
74427;BME280;62859;53.906;27.430;2023-06-14T16:57:29;1010;;;25;36
74427;BME280;62859;53.906;27.430;2023-06-14T17:02:21;1010;;;24.9;36
74427;BME280;62859;53.906;27.430;2023-06-14T17:06:49;1010;;;24.9;36.1
74427;BME280;62859;53.906;27.430;2023-06-14T17:12:29;1010;;;24.9;36.1
74427;BME280;62859;53.906;27.430;2023-06-14T17:17:01;1010;;;24.9;36.1
74427;BME280;62859;53.906;27.430;2023-06-14T17:22:27;1010;;;24.8;36.1
74427;BME280;62859;53.906;27.430;2023-06-14T17:26:43;1010;;;24.8;36.1
74427;BME280;62859;53.906;27.430;2023-06-14T17:32:27;1009.9;;;24.8;36.1
74427;BME280;62859;53.906;27.430;2023-06-14T17:37:13;1010;;;24.8;36.1
74427;BME280;62859;53.906;27.430;2023-06-14T17:42:27;1010.1;;;24.7;36.2
74427;BME280;62859;53.906;27.430;2023-06-14T17:46:55;1010.1;;;24.8;36.1
74427;BME280;62859;53.906;27.430;2023-06-14T17:52:11;1010.1;;;24.8;36.2
74427;BME280;62859;53.906;27.430;2023-06-14T17:57:13;1010.1;;;24.7;36.3
74427;BME280;62859;53.906;27.430;2023-06-14T18:02:29;1010.1;;;24.7;36.2
74427;BME280;62859;53.906;27.430;2023-06-14T18:07:09;1010.1;;;24.6;36.3
74427;BME280;62859;53.906;27.430;2023-06-14T18:12:29;1010.1;;;24.6;36.2
74427;BME280;62859;53.906;27.430;2023-06-14T18:17:15;1010.1;;;24.5;36.4
74427;BME280;62859;53.906;27.430;2023-06-14T18:22:29;1010.1;;;24.5;36.5
74427;BME280;62859;53.906;27.430;2023-06-14T18:26:55;1010.1;;;24.4;36.6
74427;BME280;62859;53.906;27.430;2023-06-14T18:32:31;1010.1;;;24.4;36.7
74427;BME280;62859;53.906;27.430;2023-06-14T18:37:19;1010.1;;;24.4;36.8
74427;BME280;62859;53.906;27.430;2023-06-14T18:42:33;1010.2;;;24.3;36.9
74427;BME280;62859;53.906;27.430;2023-06-14T18:46:55;1010.2;;;24.3;36.9
74427;BME280;62859;53.906;27.430;2023-06-14T18:52:33;1010.2;;;24.3;36.9
74427;BME280;62859;53.906;27.430;2023-06-14T18:57:19;1010.2;;;24.3;36.9
74427;BME280;62859;53.906;27.430;2023-06-14T19:02:27;1010.2;;;24.3;36.7
74427;BME280;62859;53.906;27.430;2023-06-14T19:06:55;1010.2;;;24.3;36.7
74427;BME280;62859;53.906;27.430;2023-06-14T19:12:29;1010.2;;;24.3;36.6
74427;BME280;62859;53.906;27.430;2023-06-14T19:17:17;1010.3;;;24.2;36.6
74427;BME280;62859;53.906;27.430;2023-06-14T19:22:29;1010.3;;;24.1;36.6
74427;BME280;62859;53.906;27.430;2023-06-14T19:26:55;1010.3;;;24.1;36.7
74427;BME280;62859;53.906;27.430;2023-06-14T19:32:31;1010.3;;;24.1;36.6
74427;BME280;62859;53.906;27.430;2023-06-14T19:36:59;1010.3;;;24;36.7
74427;BME280;62859;53.906;27.430;2023-06-14T19:42:31;1010.3;;;24;36.7
74427;BME280;62859;53.906;27.430;2023-06-14T19:46:57;1010.3;;;24;36.8
74427;BME280;62859;53.906;27.430;2023-06-14T19:52:17;1010.3;;;24;36.7
74427;BME280;62859;53.906;27.430;2023-06-14T19:57:17;1010.3;;;24;36.7
74427;BME280;62859;53.906;27.430;2023-06-14T20:02:21;1010.3;;;23.9;36.7
74427;BME280;62859;53.906;27.430;2023-06-14T20:06:55;1010.4;;;23.9;36.7
74427;BME280;62859;53.906;27.430;2023-06-14T20:12:31;1010.4;;;23.9;36.6
74427;BME280;62859;53.906;27.430;2023-06-14T20:16:57;1010.4;;;23.8;36.7
74427;BME280;62859;53.906;27.430;2023-06-14T20:22:19;1010.4;;;23.8;36.7
74427;BME280;62859;53.906;27.430;2023-06-14T20:26:43;1010.4;;;23.8;36.7
74427;BME280;62859;53.906;27.430;2023-06-14T20:32:31;1010.4;;;23.9;36.8
74427;BME280;62859;53.906;27.430;2023-06-14T20:37:17;1010.4;;;23.9;36.8
74427;BME280;62859;53.906;27.430;2023-06-14T20:42:31;1010.4;;;23.9;36.8
74427;BME280;62859;53.906;27.430;2023-06-14T20:46:55;1010.4;;;23.9;36.8
74427;BME280;62859;53.906;27.430;2023-06-14T20:52:31;1010.4;;;23.9;37.1
74427;BME280;62859;53.906;27.430;2023-06-14T20:57:17;1010.4;;;23.9;37.1
74427;BME280;62859;53.906;27.430;2023-06-14T21:02:17;1010.5;;;23.8;37.4
74427;BME280;62859;53.906;27.430;2023-06-14T21:06:47;1010.5;;;23.8;37.9
74427;BME280;62859;53.906;27.430;2023-06-14T21:12:29;1010.4;;;23.8;38.5
74427;BME280;62859;53.906;27.430;2023-06-14T21:17:03;1010.4;;;23.8;38.5
74427;BME280;62859;53.906;27.430;2023-06-14T21:22:32;1010.4;;;23.7;38.6
74427;BME280;62859;53.906;27.430;2023-06-14T21:26:43;1010.4;;;23.5;38.9
74427;BME280;62859;53.906;27.430;2023-06-14T21:32:33;1010.5;;;23.4;39.1
74427;BME280;62859;53.906;27.430;2023-06-14T21:37:15;1010.4;;;23.3;39.2
74427;BME280;62859;53.906;27.430;2023-06-14T21:42:29;1010.4;;;23.3;39.4
74427;BME280;62859;53.906;27.430;2023-06-14T21:46:53;1010.4;;;23.2;39.5
74427;BME280;62859;53.906;27.430;2023-06-14T21:52:27;1010.4;;;23.1;39.5
74427;BME280;62859;53.906;27.430;2023-06-14T21:57:09;1010.4;;;23.1;39.6
74427;BME280;62859;53.906;27.430;2023-06-14T22:02:27;1010.4;;;23.1;39.6
74427;BME280;62859;53.906;27.430;2023-06-14T22:06:53;1010.4;;;23.1;39.9
74427;BME280;62859;53.906;27.430;2023-06-14T22:12:29;1010.3;;;23;40.2
74427;BME280;62859;53.906;27.430;2023-06-14T22:17:15;1010.3;;;23;40.4
74427;BME280;62859;53.906;27.430;2023-06-14T22:22:29;1010.3;;;22.9;40.6
74427;BME280;62859;53.906;27.430;2023-06-14T22:26:43;1010.3;;;22.9;40.7
74427;BME280;62859;53.906;27.430;2023-06-14T22:32:29;1010.2;;;22.9;40.8
74427;BME280;62859;53.906;27.430;2023-06-14T22:37:15;1010.2;;;22.9;40.8
74427;BME280;62859;53.906;27.430;2023-06-14T22:42:27;1010.2;;;22.9;40.9
74427;BME280;62859;53.906;27.430;2023-06-14T22:46:43;1010.2;;;22.9;40.8
74427;BME280;62859;53.906;27.430;2023-06-14T22:52:29;1010.2;;;22.9;40.8
74427;BME280;62859;53.906;27.430;2023-06-14T22:57:09;1010.2;;;22.9;40.9
74427;BME280;62859;53.906;27.430;2023-06-14T23:02:29;1010.2;;;22.8;41.2
74427;BME280;62859;53.906;27.430;2023-06-14T23:06:53;1010.2;;;22.8;41.3
74427;BME280;62859;53.906;27.430;2023-06-14T23:12:27;1010.2;;;22.8;41.4
74427;BME280;62859;53.906;27.430;2023-06-14T23:17:13;1010.2;;;22.8;41.5
74427;BME280;62859;53.906;27.430;2023-06-14T23:22:27;1010.2;;;22.8;41.5
74427;BME280;62859;53.906;27.430;2023-06-14T23:26:43;1010.2;;;22.8;41.4
74427;BME280;62859;53.906;27.430;2023-06-14T23:32:29;1010.2;;;22.8;41.3
74427;BME280;62859;53.906;27.430;2023-06-14T23:36:59;1010.2;;;22.8;41.2
74427;BME280;62859;53.906;27.430;2023-06-14T23:42:27;1010.2;;;22.8;41.1
74427;BME280;62859;53.906;27.430;2023-06-14T23:46:43;1010.2;;;22.8;41
74427;BME280;62859;53.906;27.430;2023-06-14T23:52:29;1010.2;;;22.8;40.8
74427;BME280;62859;53.906;27.430;2023-06-14T23:57:01;1010.2;;;22.9;40.7
